sensor_id;sensor_type;location;lat;lon;timestamp;temperature;humidity
16140;DHT22;8175;49.326;12.690;2023-08-24T05:54:40;14.90;99.90
16140;DHT22;8175;49.326;12.690;2023-08-24T05:57:05;15.00;99.90
16140;DHT22;8175;49.326;12.690;2023-08-24T05:59:33;15.00;99.90
16140;DHT22;8175;49.326;12.690;2023-08-24T06:01:58;15.20;99.90
16140;DHT22;8175;49.326;12.690;2023-08-24T06:04:24;15.30;99.90
16140;DHT22;8175;49.326;12.690;2023-08-24T06:06:50;15.40;99.90
16140;DHT22;8175;49.326;12.690;2023-08-24T06:09:15;15.50;99.90
16140;DHT22;8175;49.326;12.690;2023-08-24T06:11:41;15.70;99.90
16140;DHT22;8175;49.326;12.690;2023-08-24T06:14:07;16.00;99.90
16140;DHT22;8175;49.326;12.690;2023-08-24T06:16:33;16.20;99.90
16140;DHT22;8175;49.326;12.690;2023-08-24T06:18:58;16.30;99.90
16140;DHT22;8175;49.326;12.690;2023-08-24T06:21:24;16.50;99.90
16140;DHT22;8175;49.326;12.690;2023-08-24T06:23:49;16.70;99.90
16140;DHT22;8175;49.326;12.690;2023-08-24T06:26:16;16.90;99.90
16140;DHT22;8175;49.326;12.690;2023-08-24T06:28:42;17.10;99.90
16140;DHT22;8175;49.326;12.690;2023-08-24T06:31:07;17.30;99.90
16140;DHT22;8175;49.326;12.690;2023-08-24T06:33:37;17.40;99.90
16140;DHT22;8175;49.326;12.690;2023-08-24T06:36:04;17.50;99.90
16140;DHT22;8175;49.326;12.690;2023-08-24T06:38:30;17.60;99.90
16140;DHT22;8175;49.326;12.690;2023-08-24T06:40:57;17.70;99.90
16140;DHT22;8175;49.326;12.690;2023-08-24T06:43:23;17.80;99.90
16140;DHT22;8175;49.326;12.690;2023-08-24T06:45:49;17.90;99.90
16140;DHT22;8175;49.326;12.690;2023-08-24T06:48:14;18.00;99.90
16140;DHT22;8175;49.326;12.690;2023-08-24T06:50:40;18.00;99.90
16140;DHT22;8175;49.326;12.690;2023-08-24T06:53:06;17.90;99.90
16140;DHT22;8175;49.326;12.690;2023-08-24T06:55:32;18.00;99.90
16140;DHT22;8175;49.326;12.690;2023-08-24T06:57:57;18.00;99.90
16140;DHT22;8175;49.326;12.690;2023-08-24T07:00:23;18.10;99.90
16140;DHT22;8175;49.326;12.690;2023-08-24T07:02:50;18.30;99.90
16140;DHT22;8175;49.326;12.690;2023-08-24T07:05:16;18.50;99.90
16140;DHT22;8175;49.326;12.690;2023-08-24T07:07:46;18.70;99.90
16140;DHT22;8175;49.326;12.690;2023-08-24T07:10:12;18.90;99.90
16140;DHT22;8175;49.326;12.690;2023-08-24T07:12:38;19.10;99.90
16140;DHT22;8175;49.326;12.690;2023-08-24T07:15:07;19.20;99.90
16140;DHT22;8175;49.326;12.690;2023-08-24T07:17:32;19.40;99.90
16140;DHT22;8175;49.326;12.690;2023-08-24T07:19:58;19.70;99.90
16140;DHT22;8175;49.326;12.690;2023-08-24T07:22:24;20.00;99.90
16140;DHT22;8175;49.326;12.690;2023-08-24T07:24:52;20.30;99.90
16140;DHT22;8175;49.326;12.690;2023-08-24T07:27:18;20.70;99.90
16140;DHT22;8175;49.326;12.690;2023-08-24T07:29:44;21.10;99.90
16140;DHT22;8175;49.326;12.690;2023-08-24T07:32:09;21.40;99.90
16140;DHT22;8175;49.326;12.690;2023-08-24T07:34:35;21.80;99.90
16140;DHT22;8175;49.326;12.690;2023-08-24T07:37:01;22.80;99.90
16140;DHT22;8175;49.326;12.690;2023-08-24T07:39:27;23.60;99.90
16140;DHT22;8175;49.326;12.690;2023-08-24T07:41:53;24.10;99.90
16140;DHT22;8175;49.326;12.690;2023-08-24T07:44:18;25.00;99.90
16140;DHT22;8175;49.326;12.690;2023-08-24T07:46:46;25.40;99.90
16140;DHT22;8175;49.326;12.690;2023-08-24T07:49:12;25.60;99.90
16140;DHT22;8175;49.326;12.690;2023-08-24T07:51:38;26.50;99.90
16140;DHT22;8175;49.326;12.690;2023-08-24T07:54:03;27.80;99.90
16140;DHT22;8175;49.326;12.690;2023-08-24T07:56:32;29.20;99.90
16140;DHT22;8175;49.326;12.690;2023-08-24T07:58:57;30.20;99.90
16140;DHT22;8175;49.326;12.690;2023-08-24T08:01:23;31.10;99.90
16140;DHT22;8175;49.326;12.690;2023-08-24T08:03:48;32.10;97.50
16140;DHT22;8175;49.326;12.690;2023-08-24T08:06:14;32.90;91.60
16140;DHT22;8175;49.326;12.690;2023-08-24T08:08:40;32.80;91.40
16140;DHT22;8175;49.326;12.690;2023-08-24T08:11:05;33.50;90.50
16140;DHT22;8175;49.326;12.690;2023-08-24T08:13:31;33.40;88.40
16140;DHT22;8175;49.326;12.690;2023-08-24T08:16:04;32.60;88.70
16140;DHT22;8175;49.326;12.690;2023-08-24T08:18:31;31.60;93.00
16140;DHT22;8175;49.326;12.690;2023-08-24T08:20:57;30.10;92.40
16140;DHT22;8175;49.326;12.690;2023-08-24T08:23:23;28.80;94.50
16140;DHT22;8175;49.326;12.690;2023-08-24T08:25:48;28.00;99.20
16140;DHT22;8175;49.326;12.690;2023-08-24T08:28:14;27.80;99.90
16140;DHT22;8175;49.326;12.690;2023-08-24T08:30:40;27.90;99.90
16140;DHT22;8175;49.326;12.690;2023-08-24T08:33:05;27.20;99.90
16140;DHT22;8175;49.326;12.690;2023-08-24T08:35:31;27.00;99.90
16140;DHT22;8175;49.326;12.690;2023-08-24T08:37:57;26.70;99.90
16140;DHT22;8175;49.326;12.690;2023-08-24T08:40:26;27.40;99.90
16140;DHT22;8175;49.326;12.690;2023-08-24T08:42:59;29.60;99.70
16140;DHT22;8175;49.326;12.690;2023-08-24T08:45:25;30.50;94.60
16140;DHT22;8175;49.326;12.690;2023-08-24T08:47:56;31.10;92.30
16140;DHT22;8175;49.326;12.690;2023-08-24T08:50:23;31.30;87.80
16140;DHT22;8175;49.326;12.690;2023-08-24T08:52:49;30.40;91.50
16140;DHT22;8175;49.326;12.690;2023-08-24T08:55:15;29.70;92.60
16140;DHT22;8175;49.326;12.690;2023-08-24T08:57:41;30.30;93.00
16140;DHT22;8175;49.326;12.690;2023-08-24T09:00:12;30.90;92.50
16140;DHT22;8175;49.326;12.690;2023-08-24T09:02:39;31.60;86.90
16140;DHT22;8175;49.326;12.690;2023-08-24T09:05:07;32.10;87.00
16140;DHT22;8175;49.326;12.690;2023-08-24T09:07:34;32.50;82.80
16140;DHT22;8175;49.326;12.690;2023-08-24T09:10:02;32.60;78.70
16140;DHT22;8175;49.326;12.690;2023-08-24T09:12:31;32.40;78.60
16140;DHT22;8175;49.326;12.690;2023-08-24T09:14:58;32.40;76.20
16140;DHT22;8175;49.326;12.690;2023-08-24T09:17:24;33.00;73.00
16140;DHT22;8175;49.326;12.690;2023-08-24T09:19:58;34.10;70.00
16140;DHT22;8175;49.326;12.690;2023-08-24T09:22:24;34.90;67.00
16140;DHT22;8175;49.326;12.690;2023-08-24T09:24:50;34.20;64.10
16140;DHT22;8175;49.326;12.690;2023-08-24T09:27:17;32.70;64.50
16140;DHT22;8175;49.326;12.690;2023-08-24T09:29:50;31.50;65.10
16140;DHT22;8175;49.326;12.690;2023-08-24T09:32:22;31.80;67.60
16140;DHT22;8175;49.326;12.690;2023-08-24T09:34:47;32.40;65.80
16140;DHT22;8175;49.326;12.690;2023-08-24T09:37:14;33.10;71.40
16140;DHT22;8175;49.326;12.690;2023-08-24T09:39:41;33.00;68.60
16140;DHT22;8175;49.326;12.690;2023-08-24T09:42:06;33.50;66.70
16140;DHT22;8175;49.326;12.690;2023-08-24T09:44:32;34.80;62.20
16140;DHT22;8175;49.326;12.690;2023-08-24T09:46:58;35.90;58.60
16140;DHT22;8175;49.326;12.690;2023-08-24T09:49:24;35.90;56.70
16140;DHT22;8175;49.326;12.690;2023-08-24T09:51:55;34.90;55.60
16140;DHT22;8175;49.326;12.690;2023-08-24T09:54:26;34.70;56.00
16140;DHT22;8175;49.326;12.690;2023-08-24T09:56:54;35.50;55.70
16140;DHT22;8175;49.326;12.690;2023-08-24T09:59:22;36.20;55.00
16140;DHT22;8175;49.326;12.690;2023-08-24T10:01:50;35.60;51.70
16140;DHT22;8175;49.326;12.690;2023-08-24T10:04:28;35.60;52.30
16140;DHT22;8175;49.326;12.690;2023-08-24T10:07:06;35.60;51.60
16140;DHT22;8175;49.326;12.690;2023-08-24T10:09:44;35.60;51.80
16140;DHT22;8175;49.326;12.690;2023-08-24T10:12:11;35.90;55.60
16140;DHT22;8175;49.326;12.690;2023-08-24T10:14:41;36.40;53.40
16140;DHT22;8175;49.326;12.690;2023-08-24T10:17:09;37.00;50.70
16140;DHT22;8175;49.326;12.690;2023-08-24T10:19:36;36.90;48.50
16140;DHT22;8175;49.326;12.690;2023-08-24T10:22:03;36.40;48.80
16140;DHT22;8175;49.326;12.690;2023-08-24T10:24:30;35.20;50.60
16140;DHT22;8175;49.326;12.690;2023-08-24T10:26:57;35.90;51.60
16140;DHT22;8175;49.326;12.690;2023-08-24T10:29:23;36.30;51.00
16140;DHT22;8175;49.326;12.690;2023-08-24T10:31:51;36.40;50.20
16140;DHT22;8175;49.326;12.690;2023-08-24T10:34:17;36.50;50.30
16140;DHT22;8175;49.326;12.690;2023-08-24T10:36:43;36.10;50.50
16140;DHT22;8175;49.326;12.690;2023-08-24T10:39:08;36.00;50.70
16140;DHT22;8175;49.326;12.690;2023-08-24T10:41:53;35.50;50.10
16140;DHT22;8175;49.326;12.690;2023-08-24T10:44:25;35.30;51.30
16140;DHT22;8175;49.326;12.690;2023-08-24T10:47:28;35.30;53.60
16140;DHT22;8175;49.326;12.690;2023-08-24T10:52:33;34.50;55.60
16140;DHT22;8175;49.326;12.690;2023-08-24T10:55:02;34.00;54.50
16140;DHT22;8175;49.326;12.690;2023-08-24T10:57:38;35.10;50.50
16140;DHT22;8175;49.326;12.690;2023-08-24T11:00:09;35.00;54.30
16140;DHT22;8175;49.326;12.690;2023-08-24T11:02:55;35.50;52.80
16140;DHT22;8175;49.326;12.690;2023-08-24T11:05:26;36.30;51.50
16140;DHT22;8175;49.326;12.690;2023-08-24T11:08:01;36.40;50.70
16140;DHT22;8175;49.326;12.690;2023-08-24T11:10:47;35.90;49.90
16140;DHT22;8175;49.326;12.690;2023-08-24T11:13:14;35.50;52.10
16140;DHT22;8175;49.326;12.690;2023-08-24T11:15:44;36.00;51.70
16140;DHT22;8175;49.326;12.690;2023-08-24T11:18:24;36.50;50.70
16140;DHT22;8175;49.326;12.690;2023-08-24T11:23:26;37.00;49.10
16140;DHT22;8175;49.326;12.690;2023-08-24T11:25:53;37.30;47.40
16140;DHT22;8175;49.326;12.690;2023-08-24T11:28:28;36.90;46.20
16140;DHT22;8175;49.326;12.690;2023-08-24T11:30:55;35.80;45.00
16140;DHT22;8175;49.326;12.690;2023-08-24T11:33:31;34.40;47.90
16140;DHT22;8175;49.326;12.690;2023-08-24T11:35:59;33.10;52.40
16140;DHT22;8175;49.326;12.690;2023-08-24T11:38:25;32.50;51.20
16140;DHT22;8175;49.326;12.690;2023-08-24T11:40:50;32.80;51.40
16140;DHT22;8175;49.326;12.690;2023-08-24T11:43:25;32.80;52.80
16140;DHT22;8175;49.326;12.690;2023-08-24T11:45:54;32.70;49.70
16140;DHT22;8175;49.326;12.690;2023-08-24T11:48:27;32.40;51.50
16140;DHT22;8175;49.326;12.690;2023-08-24T11:50:55;32.40;48.10
16140;DHT22;8175;49.326;12.690;2023-08-24T11:53:22;33.00;45.90
16140;DHT22;8175;49.326;12.690;2023-08-24T11:55:52;33.00;47.80
16140;DHT22;8175;49.326;12.690;2023-08-24T11:58:17;33.20;44.80
16140;DHT22;8175;49.326;12.690;2023-08-24T12:00:43;33.30;49.60
16140;DHT22;8175;49.326;12.690;2023-08-24T12:03:10;33.80;50.30
16140;DHT22;8175;49.326;12.690;2023-08-24T12:05:36;35.40;46.20
16140;DHT22;8175;49.326;12.690;2023-08-24T12:08:01;36.50;49.60
16140;DHT22;8175;49.326;12.690;2023-08-24T12:10:27;37.40;44.80
16140;DHT22;8175;49.326;12.690;2023-08-24T12:13:04;37.60;43.30
16140;DHT22;8175;49.326;12.690;2023-08-24T12:15:37;37.80;39.80
16140;DHT22;8175;49.326;12.690;2023-08-24T12:18:12;37.50;38.70
16140;DHT22;8175;49.326;12.690;2023-08-24T12:20:40;37.70;45.90
16140;DHT22;8175;49.326;12.690;2023-08-24T12:23:06;37.50;40.70
16140;DHT22;8175;49.326;12.690;2023-08-24T12:25:37;37.20;41.60
16140;DHT22;8175;49.326;12.690;2023-08-24T12:28:10;36.80;38.00
16140;DHT22;8175;49.326;12.690;2023-08-24T12:30:50;36.00;39.20
16140;DHT22;8175;49.326;12.690;2023-08-24T12:33:30;35.80;44.80
16140;DHT22;8175;49.326;12.690;2023-08-24T12:35:57;35.80;42.80
16140;DHT22;8175;49.326;12.690;2023-08-24T12:38:25;35.40;41.00
16140;DHT22;8175;49.326;12.690;2023-08-24T12:40:51;35.60;42.60
16140;DHT22;8175;49.326;12.690;2023-08-24T12:43:17;36.10;41.90
16140;DHT22;8175;49.326;12.690;2023-08-24T12:45:43;36.90;43.20
16140;DHT22;8175;49.326;12.690;2023-08-24T12:48:09;37.50;43.60
16140;DHT22;8175;49.326;12.690;2023-08-24T12:50:36;37.30;40.70
16140;DHT22;8175;49.326;12.690;2023-08-24T12:53:02;36.80;38.60
16140;DHT22;8175;49.326;12.690;2023-08-24T12:55:31;36.60;41.70
16140;DHT22;8175;49.326;12.690;2023-08-24T12:57:57;36.40;42.00
16140;DHT22;8175;49.326;12.690;2023-08-24T13:00:24;35.70;42.00
16140;DHT22;8175;49.326;12.690;2023-08-24T13:02:50;34.90;42.60
16140;DHT22;8175;49.326;12.690;2023-08-24T13:05:16;34.50;40.30
16140;DHT22;8175;49.326;12.690;2023-08-24T13:07:42;34.90;42.20
16140;DHT22;8175;49.326;12.690;2023-08-24T13:10:08;35.40;41.90
16140;DHT22;8175;49.326;12.690;2023-08-24T13:12:34;35.50;38.80
16140;DHT22;8175;49.326;12.690;2023-08-24T13:15:00;35.80;39.70
16140;DHT22;8175;49.326;12.690;2023-08-24T13:17:27;36.50;38.50
16140;DHT22;8175;49.326;12.690;2023-08-24T13:19:53;36.70;37.40
16140;DHT22;8175;49.326;12.690;2023-08-24T13:22:18;36.70;37.40
16140;DHT22;8175;49.326;12.690;2023-08-24T13:24:44;36.30;34.00
16140;DHT22;8175;49.326;12.690;2023-08-24T13:27:10;36.60;35.40
16140;DHT22;8175;49.326;12.690;2023-08-24T13:29:40;37.20;32.50
16140;DHT22;8175;49.326;12.690;2023-08-24T13:32:06;37.20;33.10
16140;DHT22;8175;49.326;12.690;2023-08-24T13:34:32;36.70;31.80
16140;DHT22;8175;49.326;12.690;2023-08-24T13:36:57;36.60;32.70
16140;DHT22;8175;49.326;12.690;2023-08-24T13:39:26;36.60;34.00
16140;DHT22;8175;49.326;12.690;2023-08-24T13:41:54;36.90;32.80
16140;DHT22;8175;49.326;12.690;2023-08-24T13:44:20;37.10;37.60
16140;DHT22;8175;49.326;12.690;2023-08-24T13:46:46;36.70;34.40
16140;DHT22;8175;49.326;12.690;2023-08-24T13:49:11;36.40;34.70
16140;DHT22;8175;49.326;12.690;2023-08-24T13:51:37;35.90;35.80
16140;DHT22;8175;49.326;12.690;2023-08-24T13:54:11;35.80;36.90
16140;DHT22;8175;49.326;12.690;2023-08-24T13:56:37;35.60;40.10
16140;DHT22;8175;49.326;12.690;2023-08-24T13:59:03;35.30;39.10
16140;DHT22;8175;49.326;12.690;2023-08-24T14:01:29;34.90;39.50
16140;DHT22;8175;49.326;12.690;2023-08-24T14:03:54;34.90;38.30
16140;DHT22;8175;49.326;12.690;2023-08-24T14:06:20;35.00;37.70
16140;DHT22;8175;49.326;12.690;2023-08-24T14:08:46;34.70;37.00
16140;DHT22;8175;49.326;12.690;2023-08-24T14:11:12;35.00;39.50
16140;DHT22;8175;49.326;12.690;2023-08-24T14:13:38;35.80;40.70
16140;DHT22;8175;49.326;12.690;2023-08-24T14:16:04;35.90;46.50
16140;DHT22;8175;49.326;12.690;2023-08-24T14:18:29;35.90;40.50
16140;DHT22;8175;49.326;12.690;2023-08-24T14:20:56;35.50;41.70
16140;DHT22;8175;49.326;12.690;2023-08-24T14:23:21;34.80;41.50
16140;DHT22;8175;49.326;12.690;2023-08-24T14:25:47;33.90;42.90
16140;DHT22;8175;49.326;12.690;2023-08-24T14:28:14;33.40;46.70
16140;DHT22;8175;49.326;12.690;2023-08-24T14:30:39;33.10;47.40
16140;DHT22;8175;49.326;12.690;2023-08-24T14:33:05;32.70;46.40
16140;DHT22;8175;49.326;12.690;2023-08-24T14:35:31;32.60;44.30
16140;DHT22;8175;49.326;12.690;2023-08-24T14:37:57;32.60;45.20
16140;DHT22;8175;49.326;12.690;2023-08-24T14:40:23;32.30;46.40
16140;DHT22;8175;49.326;12.690;2023-08-24T14:42:49;32.30;49.80
16140;DHT22;8175;49.326;12.690;2023-08-24T14:45:15;32.10;46.60
16140;DHT22;8175;49.326;12.690;2023-08-24T14:47:42;31.80;51.70
16140;DHT22;8175;49.326;12.690;2023-08-24T14:50:08;31.70;49.00
16140;DHT22;8175;49.326;12.690;2023-08-24T14:52:35;31.40;48.90
16140;DHT22;8175;49.326;12.690;2023-08-24T14:55:01;31.60;57.30
16140;DHT22;8175;49.326;12.690;2023-08-24T14:57:27;32.00;57.90
16140;DHT22;8175;49.326;12.690;2023-08-24T14:59:52;32.30;53.80
16140;DHT22;8175;49.326;12.690;2023-08-24T15:02:18;32.40;53.30
16140;DHT22;8175;49.326;12.690;2023-08-24T15:04:44;32.30;47.00
16140;DHT22;8175;49.326;12.690;2023-08-24T15:07:09;31.80;48.20
16140;DHT22;8175;49.326;12.690;2023-08-24T15:09:35;32.10;47.80
16140;DHT22;8175;49.326;12.690;2023-08-24T15:12:01;32.70;54.70
16140;DHT22;8175;49.326;12.690;2023-08-24T15:14:30;33.20;52.10
16140;DHT22;8175;49.326;12.690;2023-08-24T15:16:57;33.80;47.60
16140;DHT22;8175;49.326;12.690;2023-08-24T15:19:23;34.60;45.00
16140;DHT22;8175;49.326;12.690;2023-08-24T15:21:48;35.00;47.90
16140;DHT22;8175;49.326;12.690;2023-08-24T15:24:14;35.10;49.30
16140;DHT22;8175;49.326;12.690;2023-08-24T15:26:39;35.00;47.00
16140;DHT22;8175;49.326;12.690;2023-08-24T15:29:13;34.80;44.10
16140;DHT22;8175;49.326;12.690;2023-08-24T15:31:43;34.60;47.50
16140;DHT22;8175;49.326;12.690;2023-08-24T15:34:10;34.40;47.60
16140;DHT22;8175;49.326;12.690;2023-08-24T15:36:35;34.10;45.40
16140;DHT22;8175;49.326;12.690;2023-08-24T15:39:01;33.80;47.90
16140;DHT22;8175;49.326;12.690;2023-08-24T15:41:29;33.20;53.60
16140;DHT22;8175;49.326;12.690;2023-08-24T15:43:54;32.90;51.50
16140;DHT22;8175;49.326;12.690;2023-08-24T15:46:20;32.80;53.30
16140;DHT22;8175;49.326;12.690;2023-08-24T15:48:46;32.60;52.00
16140;DHT22;8175;49.326;12.690;2023-08-24T15:51:11;32.40;54.60
16140;DHT22;8175;49.326;12.690;2023-08-24T15:53:37;32.40;50.00
16140;DHT22;8175;49.326;12.690;2023-08-24T15:56:03;32.50;52.70
16140;DHT22;8175;49.326;12.690;2023-08-24T15:58:28;32.20;51.50
16140;DHT22;8175;49.326;12.690;2023-08-24T16:00:54;32.10;56.80
16140;DHT22;8175;49.326;12.690;2023-08-24T16:03:20;31.90;54.80
16140;DHT22;8175;49.326;12.690;2023-08-24T16:05:46;31.60;55.50
16140;DHT22;8175;49.326;12.690;2023-08-24T16:08:11;31.20;61.20
16140;DHT22;8175;49.326;12.690;2023-08-24T16:10:37;30.90;63.20
16140;DHT22;8175;49.326;12.690;2023-08-24T16:13:03;30.40;66.20
16140;DHT22;8175;49.326;12.690;2023-08-24T16:15:29;30.10;68.20
16140;DHT22;8175;49.326;12.690;2023-08-24T16:17:54;29.70;71.70
16140;DHT22;8175;49.326;12.690;2023-08-24T16:20:20;29.50;74.00
16140;DHT22;8175;49.326;12.690;2023-08-24T16:22:46;29.50;69.90
16140;DHT22;8175;49.326;12.690;2023-08-24T16:25:12;29.70;72.00
16140;DHT22;8175;49.326;12.690;2023-08-24T16:27:37;30.00;68.00
16140;DHT22;8175;49.326;12.690;2023-08-24T16:30:04;30.30;69.20
16140;DHT22;8175;49.326;12.690;2023-08-24T16:32:31;30.60;66.40
16140;DHT22;8175;49.326;12.690;2023-08-24T16:34:57;30.90;65.60
16140;DHT22;8175;49.326;12.690;2023-08-24T16:37:22;31.10;62.10
16140;DHT22;8175;49.326;12.690;2023-08-24T16:39:48;31.20;62.90
16140;DHT22;8175;49.326;12.690;2023-08-24T16:42:14;31.30;59.80
16140;DHT22;8175;49.326;12.690;2023-08-24T16:44:40;31.20;61.70
16140;DHT22;8175;49.326;12.690;2023-08-24T16:47:05;31.10;63.90
16140;DHT22;8175;49.326;12.690;2023-08-24T16:49:31;31.00;59.50
16140;DHT22;8175;49.326;12.690;2023-08-24T16:51:56;30.90;66.00
16140;DHT22;8175;49.326;12.690;2023-08-24T16:54:22;30.40;65.00
16140;DHT22;8175;49.326;12.690;2023-08-24T16:56:48;29.90;66.10
16140;DHT22;8175;49.326;12.690;2023-08-24T16:59:13;29.50;70.00
16140;DHT22;8175;49.326;12.690;2023-08-24T17:01:39;28.90;75.00
16140;DHT22;8175;49.326;12.690;2023-08-24T17:04:05;28.40;75.20
16140;DHT22;8175;49.326;12.690;2023-08-24T17:06:30;27.90;77.90
16140;DHT22;8175;49.326;12.690;2023-08-24T17:08:56;27.40;81.40
16140;DHT22;8175;49.326;12.690;2023-08-24T17:11:22;26.90;87.00
16140;DHT22;8175;49.326;12.690;2023-08-24T17:13:52;26.50;93.80
16140;DHT22;8175;49.326;12.690;2023-08-24T17:16:20;26.10;96.50
16140;DHT22;8175;49.326;12.690;2023-08-24T17:18:46;25.80;99.90
16140;DHT22;8175;49.326;12.690;2023-08-24T17:21:11;25.50;99.90
16140;DHT22;8175;49.326;12.690;2023-08-24T17:23:37;25.20;99.90
16140;DHT22;8175;49.326;12.690;2023-08-24T17:26:03;24.90;99.90
16140;DHT22;8175;49.326;12.690;2023-08-24T17:28:29;24.70;99.90
16140;DHT22;8175;49.326;12.690;2023-08-24T17:30:55;24.40;99.90
16140;DHT22;8175;49.326;12.690;2023-08-24T17:33:21;24.20;99.90
16140;DHT22;8175;49.326;12.690;2023-08-24T17:35:47;24.00;99.90
16140;DHT22;8175;49.326;12.690;2023-08-24T17:38:13;23.90;99.90
16140;DHT22;8175;49.326;12.690;2023-08-24T17:40:39;23.70;99.90
16140;DHT22;8175;49.326;12.690;2023-08-24T17:43:05;23.70;99.90
16140;DHT22;8175;49.326;12.690;2023-08-24T17:45:31;23.50;99.90
16140;DHT22;8175;49.326;12.690;2023-08-24T17:47:57;23.50;99.90
16140;DHT22;8175;49.326;12.690;2023-08-24T17:50:22;23.40;99.90
16140;DHT22;8175;49.326;12.690;2023-08-24T17:52:48;23.30;99.90
16140;DHT22;8175;49.326;12.690;2023-08-24T17:55:14;23.30;99.90
16140;DHT22;8175;49.326;12.690;2023-08-24T17:57:40;23.30;99.90
16140;DHT22;8175;49.326;12.690;2023-08-24T18:00:06;23.20;99.90
16140;DHT22;8175;49.326;12.690;2023-08-24T18:02:35;23.10;99.90
16140;DHT22;8175;49.326;12.690;2023-08-24T18:05:01;23.00;99.90
16140;DHT22;8175;49.326;12.690;2023-08-24T18:07:29;22.90;99.90
16140;DHT22;8175;49.326;12.690;2023-08-24T18:09:54;22.90;99.90
16140;DHT22;8175;49.326;12.690;2023-08-24T18:12:22;22.70;99.90
16140;DHT22;8175;49.326;12.690;2023-08-24T18:14:48;22.60;99.90
16140;DHT22;8175;49.326;12.690;2023-08-24T18:17:13;22.50;99.90
16140;DHT22;8175;49.326;12.690;2023-08-24T18:19:39;22.40;99.90
16140;DHT22;8175;49.326;12.690;2023-08-24T18:22:05;22.20;99.90
16140;DHT22;8175;49.326;12.690;2023-08-24T18:24:31;22.20;99.90
16140;DHT22;8175;49.326;12.690;2023-08-24T18:26:56;22.10;99.90
16140;DHT22;8175;49.326;12.690;2023-08-24T18:29:23;22.00;99.90
16140;DHT22;8175;49.326;12.690;2023-08-24T18:31:49;21.90;99.90
16140;DHT22;8175;49.326;12.690;2023-08-24T18:34:15;21.90;99.90
16140;DHT22;8175;49.326;12.690;2023-08-24T18:36:40;21.90;99.90
16140;DHT22;8175;49.326;12.690;2023-08-24T18:39:06;21.90;99.90
16140;DHT22;8175;49.326;12.690;2023-08-24T18:41:33;21.90;99.90
16140;DHT22;8175;49.326;12.690;2023-08-24T18:43:59;21.80;99.90
16140;DHT22;8175;49.326;12.690;2023-08-24T18:46:24;21.70;99.90
16140;DHT22;8175;49.326;12.690;2023-08-24T18:48:50;21.70;99.90
16140;DHT22;8175;49.326;12.690;2023-08-24T18:51:16;21.60;99.90
16140;DHT22;8175;49.326;12.690;2023-08-24T18:53:44;21.50;99.90
16140;DHT22;8175;49.326;12.690;2023-08-24T18:56:09;21.40;99.90
16140;DHT22;8175;49.326;12.690;2023-08-24T18:58:35;21.40;99.90
16140;DHT22;8175;49.326;12.690;2023-08-24T19:01:02;21.50;99.90
16140;DHT22;8175;49.326;12.690;2023-08-24T19:03:29;21.50;99.90
16140;DHT22;8175;49.326;12.690;2023-08-24T19:05:55;21.50;99.90
16140;DHT22;8175;49.326;12.690;2023-08-24T19:08:21;21.60;99.90
16140;DHT22;8175;49.326;12.690;2023-08-24T19:10:48;21.70;99.90
16140;DHT22;8175;49.326;12.690;2023-08-24T19:13:13;21.80;99.90
16140;DHT22;8175;49.326;12.690;2023-08-24T19:15:39;22.00;99.90
16140;DHT22;8175;49.326;12.690;2023-08-24T19:18:06;22.20;99.90
16140;DHT22;8175;49.326;12.690;2023-08-24T19:20:32;22.50;99.90
16140;DHT22;8175;49.326;12.690;2023-08-24T19:22:58;22.70;99.90
16140;DHT22;8175;49.326;12.690;2023-08-24T19:25:24;22.90;99.90
16140;DHT22;8175;49.326;12.690;2023-08-24T19:27:49;22.70;99.90
16140;DHT22;8175;49.326;12.690;2023-08-24T19:30:15;22.40;99.90
16140;DHT22;8175;49.326;12.690;2023-08-24T19:32:40;22.20;99.90
16140;DHT22;8175;49.326;12.690;2023-08-24T19:35:06;21.90;99.90
16140;DHT22;8175;49.326;12.690;2023-08-24T19:37:32;21.80;99.90
16140;DHT22;8175;49.326;12.690;2023-08-24T19:39:58;21.60;99.90
16140;DHT22;8175;49.326;12.690;2023-08-24T19:42:23;21.40;99.90
16140;DHT22;8175;49.326;12.690;2023-08-24T19:44:51;21.40;99.90
16140;DHT22;8175;49.326;12.690;2023-08-24T19:47:16;21.80;99.90
16140;DHT22;8175;49.326;12.690;2023-08-24T19:49:43;22.10;99.90
16140;DHT22;8175;49.326;12.690;2023-08-24T19:52:08;22.40;99.90
16140;DHT22;8175;49.326;12.690;2023-08-24T19:54:34;22.60;99.90
16140;DHT22;8175;49.326;12.690;2023-08-24T19:56:59;22.80;99.90
16140;DHT22;8175;49.326;12.690;2023-08-24T19:59:25;22.90;99.90
16140;DHT22;8175;49.326;12.690;2023-08-24T20:01:51;22.90;99.90
16140;DHT22;8175;49.326;12.690;2023-08-24T20:04:16;22.90;99.90
16140;DHT22;8175;49.326;12.690;2023-08-24T20:06:43;22.90;99.90
16140;DHT22;8175;49.326;12.690;2023-08-24T20:09:09;23.10;99.90
16140;DHT22;8175;49.326;12.690;2023-08-24T20:11:37;23.10;99.90
16140;DHT22;8175;49.326;12.690;2023-08-24T20:14:03;23.10;99.90
16140;DHT22;8175;49.326;12.690;2023-08-24T20:16:29;22.90;99.90
16140;DHT22;8175;49.326;12.690;2023-08-24T20:18:55;23.10;99.90
16140;DHT22;8175;49.326;12.690;2023-08-24T20:21:21;23.10;99.90
16140;DHT22;8175;49.326;12.690;2023-08-24T20:23:47;23.00;99.90
16140;DHT22;8175;49.326;12.690;2023-08-24T20:26:13;23.00;99.90
16140;DHT22;8175;49.326;12.690;2023-08-24T20:28:40;22.90;99.90
16140;DHT22;8175;49.326;12.690;2023-08-24T20:31:09;23.00;99.90
16140;DHT22;8175;49.326;12.690;2023-08-24T20:33:36;22.90;99.90
16140;DHT22;8175;49.326;12.690;2023-08-24T20:36:02;22.80;99.90
16140;DHT22;8175;49.326;12.690;2023-08-24T20:38:28;22.60;99.90
16140;DHT22;8175;49.326;12.690;2023-08-24T20:40:54;22.50;99.90
16140;DHT22;8175;49.326;12.690;2023-08-24T20:43:21;22.40;99.90
16140;DHT22;8175;49.326;12.690;2023-08-24T20:45:47;22.20;99.90
16140;DHT22;8175;49.326;12.690;2023-08-24T20:48:14;22.10;99.90
16140;DHT22;8175;49.326;12.690;2023-08-24T20:50:40;22.00;99.90
